Time;durP1;ratioP1;P1;durP2;ratioP2;P2;SDS_P1;SDS_P2;PMS_P1;PMS_P2;Temp;Humidity;BMP_temperature;BMP_pressure;BME280_temperature;BME280_humidity;BME280_pressure;Samples;Min_cycle;Max_cycle;Signal;HPM_P1;HPM_P2
2023/07/07 00:00:44;;;;;;;5.13;2.38;;;16.30;99.90;;;;;;5019370;28;20043;-78
2023/07/07 00:03:30;;;;;;;3.95;2.53;;;16.30;99.90;;;;;;5040679;28;20052;-77
2023/07/07 00:06:17;;;;;;;4.80;2.67;;;16.30;99.90;;;;;;5037691;28;20045;-77
2023/07/07 00:09:03;;;;;;;7.95;2.72;;;16.20;99.90;;;;;;5029767;28;20119;-77
2023/07/07 00:11:49;;;;;;;3.95;2.30;;;16.20;99.90;;;;;;5018005;28;20045;-77
2023/07/07 00:14:35;;;;;;;5.53;2.50;;;16.20;99.90;;;;;;5042274;28;20049;-77
2023/07/07 00:17:21;;;;;;;7.82;2.35;;;16.10;99.90;;;;;;5043305;28;20653;-77
2023/07/07 00:20:10;;;;;;;4.63;2.25;;;16.10;99.90;;;;;;5050621;28;20076;-78
2023/07/07 00:22:58;;;;;;;5.70;2.60;;;16.10;99.90;;;;;;5042052;28;20063;-77
2023/07/07 00:25:44;;;;;;;4.20;2.40;;;16.10;99.90;;;;;;5037755;28;20103;-77
2023/07/07 00:28:30;;;;;;;6.53;2.47;;;16.10;99.90;;;;;;5040738;28;20034;-77
2023/07/07 00:31:18;;;;;;;7.25;2.60;;;16.10;99.90;;;;;;5025830;28;20045;-77
2023/07/07 00:34:03;;;;;;;6.30;2.60;;;16.00;99.90;;;;;;5037600;28;20044;-77
2023/07/07 00:36:49;;;;;;;6.53;2.45;;;16.00;99.90;;;;;;5020294;28;20044;-77
2023/07/07 00:39:35;;;;;;;4.32;2.33;;;15.90;99.90;;;;;;5050169;28;20055;-77
2023/07/07 00:42:21;;;;;;;5.00;2.30;;;15.90;99.90;;;;;;5027512;28;20076;-77
2023/07/07 00:45:15;;;;;;;6.35;2.50;;;15.80;99.90;;;;;;5050659;28;20073;-77
2023/07/07 00:48:02;;;;;;;5.45;3.00;;;15.80;99.90;;;;;;5022778;28;20033;-78
2023/07/07 00:50:54;;;;;;;5.53;2.50;;;15.90;99.90;;;;;;5025717;28;20037;-77
2023/07/07 00:53:40;;;;;;;5.68;2.55;;;15.90;99.90;;;;;;5032287;28;20131;-78
2023/07/07 00:56:38;;;;;;;3.88;2.45;;;15.80;99.90;;;;;;5050497;28;20091;-78
2023/07/07 00:59:39;;;;;;;8.50;2.63;;;15.80;99.90;;;;;;5029415;28;20049;-76
2023/07/07 01:02:25;;;;;;;5.72;2.30;;;15.70;99.90;;;;;;5018526;28;20041;-76
2023/07/07 01:05:11;;;;;;;5.10;2.53;;;15.70;99.90;;;;;;5023595;28;20033;-77
2023/07/07 01:07:59;;;;;;;5.45;2.20;;;15.70;99.90;;;;;;5036305;28;20143;-76
2023/07/07 01:10:45;;;;;;;5.05;2.35;;;15.60;99.90;;;;;;5041005;28;20032;-77
2023/07/07 01:13:31;;;;;;;4.90;2.47;;;15.60;99.90;;;;;;5036939;28;20037;-76
2023/07/07 01:16:46;;;;;;;5.68;2.50;;;15.50;99.90;;;;;;5047453;28;20041;-76
2023/07/07 01:19:45;;;;;;;3.17;2.33;;;15.50;99.90;;;;;;5038769;28;20076;-77
2023/07/07 01:22:42;;;;;;;7.65;2.53;;;15.40;99.90;;;;;;5037548;28;20057;-76
2023/07/07 01:25:40;;;;;;;5.82;2.25;;;15.40;99.90;;;;;;5043893;28;20084;-75
2023/07/07 01:28:38;;;;;;;;;;;15.30;99.90;;;;;;5046160;28;20130;-75
2023/07/07 01:31:35;;;;;;;4.88;2.25;;;15.30;99.90;;;;;;5043454;28;19964;-75
2023/07/07 01:34:22;;;;;;;5.72;2.47;;;15.30;99.90;;;;;;5034121;28;20776;-77
2023/07/07 01:37:08;;;;;;;4.90;2.10;;;15.30;99.90;;;;;;5041132;28;20436;-79
2023/07/07 01:39:54;;;;;;;5.70;2.33;;;15.20;99.90;;;;;;5042403;28;20034;-78
2023/07/07 01:42:45;;;;;;;4.75;2.47;;;15.20;99.90;;;;;;5021197;28;20037;-78
2023/07/07 01:45:44;;;;;;;5.18;2.20;;;15.20;99.90;;;;;;5022478;28;20174;-78
2023/07/07 01:49:05;;;;;;;5.63;2.30;;;15.20;99.90;;;;;;5027164;28;20041;-78
2023/07/07 01:52:02;;;;;;;7.82;2.60;;;15.20;99.90;;;;;;5051086;28;20064;-78
2023/07/07 01:54:59;;;;;;;6.65;2.45;;;15.10;99.90;;;;;;5021919;28;20124;-77
2023/07/07 01:57:46;;;;;;;3.70;2.30;;;15.00;99.90;;;;;;5033534;28;20698;-77
2023/07/07 02:00:32;;;;;;;4.18;2.50;;;15.10;99.90;;;;;;5035800;28;20465;-78
2023/07/07 02:03:19;;;;;;;4.05;2.70;;;15.10;99.90;;;;;;5013794;28;20053;-79
2023/07/07 02:06:05;;;;;;;5.15;2.47;;;15.00;99.90;;;;;;5026735;28;20521;-78
2023/07/07 02:08:51;;;;;;;4.18;2.30;;;14.90;99.90;;;;;;5054110;28;20050;-79
2023/07/07 02:11:37;;;;;;;5.63;2.60;;;14.90;99.90;;;;;;5026413;28;20033;-78
2023/07/07 02:14:23;;;;;;;4.45;2.17;;;14.90;99.90;;;;;;5013843;28;20041;-79
2023/07/07 02:17:09;;;;;;;4.45;2.40;;;14.90;99.90;;;;;;5023242;28;20125;-78
2023/07/07 02:19:56;;;;;;;4.85;2.70;;;14.90;99.90;;;;;;5036351;28;20040;-77
2023/07/07 02:22:41;;;;;;;6.63;3.60;;;14.80;99.90;;;;;;5020730;28;20053;-77
2023/07/07 02:25:28;;;;;;;5.03;2.55;;;14.70;99.90;;;;;;5038792;28;20492;-78
2023/07/07 02:28:13;;;;;;;7.35;2.60;;;14.70;99.90;;;;;;5016477;28;20037;-78
2023/07/07 02:30:59;;;;;;;4.93;2.50;;;14.70;99.90;;;;;;5014438;28;20064;-78
2023/07/07 02:33:45;;;;;;;5.07;3.25;;;14.70;99.90;;;;;;5049506;28;20045;-78
2023/07/07 02:36:31;;;;;;;5.28;2.70;;;14.60;99.90;;;;;;5018957;28;20079;-78
2023/07/07 02:39:17;;;;;;;5.05;2.83;;;14.60;99.90;;;;;;5016687;28;20057;-77
2023/07/07 02:42:03;;;;;;;5.25;3.10;;;14.60;99.90;;;;;;5018478;28;20406;-77
2023/07/07 02:44:49;;;;;;;4.00;2.22;;;14.60;99.90;;;;;;5025504;28;20037;-77
2023/07/07 02:47:35;;;;;;;4.72;2.80;;;14.50;99.90;;;;;;5020076;28;20037;-77
2023/07/07 02:50:21;;;;;;;8.50;3.05;;;14.60;99.90;;;;;;5014615;28;20041;-77
2023/07/07 02:53:07;;;;;;;5.80;3.05;;;14.50;99.90;;;;;;5040851;28;20059;-77
2023/07/07 02:55:54;;;;;;;5.55;3.17;;;14.50;99.90;;;;;;5029699;28;20037;-77
2023/07/07 02:58:40;;;;;;;4.63;2.67;;;14.50;99.90;;;;;;5030972;28;20101;-77
2023/07/07 03:01:26;;;;;;;4.95;2.70;;;14.50;99.90;;;;;;5011622;28;20087;-77
2023/07/07 03:04:12;;;;;;;8.50;3.17;;;14.40;99.90;;;;;;5029567;28;20114;-77
2023/07/07 03:06:58;;;;;;;7.88;3.30;;;14.50;99.90;;;;;;5045149;28;20462;-77
2023/07/07 03:09:44;;;;;;;5.78;3.00;;;14.40;99.90;;;;;;5020569;28;20119;-76
2023/07/07 03:12:30;;;;;;;6.18;2.55;;;14.40;99.90;;;;;;5033651;28;20120;-76
2023/07/07 03:15:20;;;;;;;7.55;2.88;;;14.40;99.90;;;;;;5033259;28;20068;-77
2023/07/07 03:18:07;;;;;;;5.55;2.53;;;14.40;99.90;;;;;;5033731;28;20059;-78
2023/07/07 03:20:53;;;;;;;5.75;2.80;;;14.40;99.90;;;;;;5026094;28;20742;-76
2023/07/07 03:23:39;;;;;;;6.60;2.85;;;14.40;99.90;;;;;;5041940;28;20045;-78
2023/07/07 03:26:26;;;;;;;5.60;2.85;;;14.50;99.90;;;;;;5037390;28;20033;-76
2023/07/07 03:29:12;;;;;;;4.57;2.53;;;14.50;99.90;;;;;;5017687;28;20040;-76
2023/07/07 03:31:58;;;;;;;4.60;2.60;;;14.50;99.90;;;;;;5027017;28;20042;-78
2023/07/07 03:34:47;;;;;;;5.47;2.80;;;14.60;99.90;;;;;;5020752;28;20421;-78
2023/07/07 03:37:33;;;;;;;5.47;2.60;;;14.60;99.90;;;;;;5032002;28;20038;-78
2023/07/07 03:40:18;;;;;;;6.40;2.92;;;14.50;99.90;;;;;;5039928;28;20044;-78
2023/07/07 03:43:04;;;;;;;4.25;2.72;;;14.50;99.90;;;;;;5018106;28;20606;-77
2023/07/07 03:45:50;;;;;;;5.03;2.72;;;14.40;99.90;;;;;;5023313;28;20040;-77
2023/07/07 03:48:38;;;;;;;5.45;2.45;;;14.40;99.90;;;;;;5045405;28;20044;-76
2023/07/07 03:51:24;;;;;;;7.72;2.90;;;14.40;99.90;;;;;;5022320;28;20041;-76
2023/07/07 03:54:10;;;;;;;5.05;2.58;;;14.40;99.90;;;;;;5043636;28;20513;-75
2023/07/07 03:56:57;;;;;;;6.97;2.72;;;14.40;99.90;;;;;;5044146;28;20085;-76
2023/07/07 03:59:44;;;;;;;4.28;2.42;;;14.40;99.90;;;;;;5036333;28;20739;-77
2023/07/07 04:02:30;;;;;;;6.32;2.80;;;14.40;99.90;;;;;;5048955;28;20120;-77
2023/07/07 04:05:16;;;;;;;5.22;3.38;;;14.40;99.90;;;;;;5041763;28;20044;-77
2023/07/07 04:08:02;;;;;;;5.30;2.65;;;14.40;99.90;;;;;;5024637;28;20485;-76
2023/07/07 04:10:59;;;;;;;5.40;2.58;;;14.40;99.90;;;;;;5028144;28;20111;-76
2023/07/07 04:13:46;;;;;;;6.75;2.58;;;14.40;99.90;;;;;;5040913;28;20033;-75
2023/07/07 04:16:32;;;;;;;5.53;2.95;;;14.30;99.90;;;;;;5050120;28;20052;-76
2023/07/07 04:19:18;;;;;;;4.68;2.50;;;14.40;99.90;;;;;;5037628;28;20037;-76
2023/07/07 04:22:04;;;;;;;4.18;2.53;;;14.40;99.90;;;;;;5029150;28;20535;-76
2023/07/07 04:25:09;;;;;;;5.82;2.65;;;14.40;99.90;;;;;;5035828;28;20091;-77
2023/07/07 04:27:55;;;;;;;12.68;6.63;;;14.40;99.90;;;;;;5040573;28;20049;-76
2023/07/07 04:30:41;;;;;;;8.93;5.70;;;14.40;99.90;;;;;;5023932;28;20033;-76
2023/07/07 04:33:28;;;;;;;7.20;2.85;;;14.40;99.90;;;;;;5024430;28;20045;-77
2023/07/07 04:36:14;;;;;;;11.48;3.40;;;14.50;99.90;;;;;;5031672;28;20335;-76
2023/07/07 04:39:00;;;;;;;4.60;2.47;;;14.50;99.90;;;;;;5029044;28;20041;-77
2023/07/07 04:41:48;;;;;;;7.50;2.60;;;14.50;99.90;;;;;;5030012;28;20056;-75
2023/07/07 04:44:34;;;;;;;7.40;2.60;;;14.50;99.90;;;;;;5031950;28;20049;-76
2023/07/07 04:47:20;;;;;;;6.15;2.78;;;14.50;99.90;;;;;;5039593;28;20609;-77
2023/07/07 04:50:07;;;;;;;6.30;2.90;;;14.60;99.90;;;;;;5047300;28;20107;-76
2023/07/07 04:52:54;;;;;;;6.23;2.93;;;14.60;99.90;;;;;;5040581;28;20037;-75
2023/07/07 04:55:42;;;;;;;5.32;2.67;;;14.60;99.90;;;;;;5050304;28;20260;-75
2023/07/07 04:58:28;;;;;;;7.15;2.90;;;14.60;99.90;;;;;;5036665;28;20041;-77
2023/07/07 05:01:20;;;;;;;7.28;2.72;;;14.70;99.90;;;;;;5034737;28;20363;-77
2023/07/07 05:04:07;;;;;;;5.95;2.25;;;14.80;99.90;;;;;;5045608;28;20053;-76
2023/07/07 05:06:53;;;;;;;5.50;2.80;;;14.80;99.90;;;;;;5014878;28;20408;-76
2023/07/07 05:09:39;;;;;;;5.18;2.40;;;14.80;99.90;;;;;;5026721;28;20038;-75
2023/07/07 05:12:26;;;;;;;7.18;2.53;;;14.90;99.90;;;;;;5043811;28;20033;-75
2023/07/07 05:15:12;;;;;;;3.72;2.30;;;15.00;99.90;;;;;;5036370;28;20432;-75
2023/07/07 05:17:58;;;;;;;6.53;2.50;;;15.00;99.90;;;;;;5034483;28;20037;-76
2023/07/07 05:20:45;;;;;;;5.38;2.53;;;15.10;99.90;;;;;;5037338;28;20047;-75
2023/07/07 05:23:31;;;;;;;8.40;2.55;;;15.20;99.90;;;;;;5039120;28;20060;-75
2023/07/07 05:26:19;;;;;;;4.97;2.53;;;15.20;99.90;;;;;;5043952;28;20041;-75
2023/07/07 05:29:05;;;;;;;;;;;15.20;99.90;;;;;;5018074;28;20045;-76
2023/07/07 05:31:52;;;;;;;5.85;2.80;;;15.30;99.90;;;;;;5027323;28;19920;-78
2023/07/07 05:34:38;;;;;;;5.43;2.50;;;15.40;99.90;;;;;;5021982;28;20129;-75
2023/07/07 05:37:24;;;;;;;8.18;2.30;;;15.40;99.90;;;;;;5035290;28;20051;-75
2023/07/07 05:40:10;;;;;;;6.28;2.28;;;15.50;99.90;;;;;;5037739;28;20474;-75
2023/07/07 05:42:56;;;;;;;4.95;2.30;;;15.50;99.90;;;;;;5032660;28;20048;-75
2023/07/07 05:45:42;;;;;;;8.07;2.55;;;15.60;99.90;;;;;;5022922;28;20037;-76
2023/07/07 05:48:28;;;;;;;9.02;2.60;;;15.60;99.90;;;;;;5039696;28;20060;-76
2023/07/07 05:51:16;;;;;;;5.03;2.60;;;15.70;99.90;;;;;;5039386;28;20350;-75
2023/07/07 05:54:02;;;;;;;5.38;1.85;;;15.70;99.90;;;;;;5029439;28;20059;-76
2023/07/07 05:56:48;;;;;;;3.97;2.33;;;15.80;99.90;;;;;;5047248;28;20040;-75
2023/07/07 05:59:34;;;;;;;5.40;2.13;;;15.90;99.90;;;;;;5019265;28;20048;-75
2023/07/07 06:02:20;;;;;;;3.22;2.10;;;15.90;99.90;;;;;;5019145;28;20576;-75
2023/07/07 06:05:06;;;;;;;6.85;2.47;;;16.00;99.90;;;;;;5051812;28;20102;-76
2023/07/07 06:07:53;;;;;;;6.88;3.95;;;16.10;99.90;;;;;;5028483;28;20043;-76
2023/07/07 06:10:39;;;;;;;6.22;2.75;;;16.20;99.90;;;;;;5040902;28;20038;-75
2023/07/07 06:13:27;;;;;;;5.03;2.20;;;16.30;99.90;;;;;;5032661;28;20127;-75
2023/07/07 06:16:13;;;;;;;5.78;1.95;;;16.30;99.90;;;;;;5042658;28;20045;-77
2023/07/07 06:18:59;;;;;;;6.38;2.15;;;16.40;99.90;;;;;;5027794;28;20355;-77
2023/07/07 06:21:47;;;;;;;5.22;1.80;;;16.60;99.90;;;;;;5053124;28;20044;-77
2023/07/07 06:24:33;;;;;;;4.77;2.13;;;16.60;99.90;;;;;;5007003;28;20041;-77
2023/07/07 06:27:20;;;;;;;4.13;1.75;;;16.70;99.90;;;;;;5026002;28;20935;-77
2023/07/07 06:30:08;;;;;;;7.40;2.10;;;16.80;99.90;;;;;;5021135;28;20052;-77
2023/07/07 06:32:54;;;;;;;4.10;1.95;;;16.90;99.90;;;;;;5016744;28;20048;-77
2023/07/07 06:35:41;;;;;;;3.88;2.17;;;17.10;99.90;;;;;;5038969;28;20041;-77
2023/07/07 06:38:28;;;;;;;5.38;2.00;;;17.20;99.90;;;;;;5028145;28;20045;-78
2023/07/07 06:41:16;;;;;;;4.07;1.92;;;17.40;99.90;;;;;;5035516;28;20048;-77
2023/07/07 06:44:04;;;;;;;6.57;2.03;;;17.50;99.90;;;;;;5028504;28;20669;-78
2023/07/07 06:46:50;;;;;;;2.60;1.48;;;17.50;99.90;;;;;;5023148;28;20037;-76
2023/07/07 06:49:36;;;;;;;5.28;2.30;;;17.60;99.90;;;;;;5032372;28;20041;-76
2023/07/07 06:52:22;;;;;;;6.38;2.15;;;17.70;99.90;;;;;;5042182;28;20033;-76
2023/07/07 06:55:08;;;;;;;5.00;1.77;;;17.80;99.90;;;;;;5019634;28;20127;-78
2023/07/07 06:57:54;;;;;;;2.70;1.95;;;17.90;99.90;;;;;;5032282;28;20041;-77
2023/07/07 07:00:41;;;;;;;5.30;2.05;;;18.00;99.90;;;;;;5031309;28;20744;-76
2023/07/07 07:03:28;;;;;;;4.00;1.88;;;18.10;99.90;;;;;;5031803;28;20083;-76
2023/07/07 07:06:14;;;;;;;4.65;1.50;;;18.30;99.90;;;;;;5027351;28;20666;-77
2023/07/07 07:09:00;;;;;;;4.15;1.90;;;18.40;99.90;;;;;;5031794;28;20041;-76
2023/07/07 07:11:46;;;;;;;4.70;2.00;;;18.60;99.70;;;;;;5019393;28;20041;-78
2023/07/07 07:14:33;;;;;;;4.63;1.77;;;18.60;99.90;;;;;;5046653;28;20077;-77
2023/07/07 07:17:19;;;;;;;5.03;1.80;;;18.60;99.50;;;;;;5045465;28;20068;-76
2023/07/07 07:20:06;;;;;;;3.92;1.73;;;18.60;98.60;;;;;;5032154;28;20108;-76
2023/07/07 07:22:52;;;;;;;5.47;1.73;;;18.60;98.00;;;;;;5013013;28;20049;-77
2023/07/07 07:25:42;;;;;;;;;;;18.70;97.40;;;;;;5038764;28;20052;-77
2023/07/07 07:28:28;;;;;;;3.60;1.80;;;18.80;97.50;;;;;;5028770;28;19930;-76
2023/07/07 07:31:14;;;;;;;3.10;1.70;;;18.80;96.80;;;;;;5041612;28;20042;-74
2023/07/07 07:34:22;;;;;;;4.18;1.60;;;18.90;96.70;;;;;;5038458;28;20044;-80
2023/07/07 07:37:08;;;;;;;4.55;1.70;;;19.00;96.00;;;;;;5035465;28;20075;-79
2023/07/07 07:39:56;;;;;;;6.55;1.80;;;19.00;96.30;;;;;;5043267;28;20135;-79
2023/07/07 07:42:43;;;;;;;3.72;1.38;;;19.10;96.10;;;;;;5040418;28;20056;-79
2023/07/07 07:45:29;;;;;;;2.65;1.50;;;19.20;95.80;;;;;;5023717;28;20511;-76
2023/07/07 07:48:15;;;;;;;6.15;1.90;;;19.30;96.10;;;;;;5036116;28;20104;-76
2023/07/07 07:51:02;;;;;;;4.32;1.58;;;19.40;95.60;;;;;;5021102;28;20470;-76
2023/07/07 07:53:48;;;;;;;2.92;1.48;;;19.40;94.60;;;;;;5039324;28;20132;-76
2023/07/07 07:56:34;;;;;;;5.03;1.23;;;19.60;95.10;;;;;;5037770;28;20837;-77
2023/07/07 07:59:20;;;;;;;4.32;1.70;;;19.70;94.30;;;;;;5029493;28;20118;-77
2023/07/07 08:02:10;;;;;;;5.32;1.70;;;19.90;94.60;;;;;;5025692;28;20498;-77
2023/07/07 08:04:56;;;;;;;3.42;1.60;;;19.90;94.30;;;;;;5038734;28;20496;-77
2023/07/07 08:07:42;;;;;;;4.07;1.58;;;19.80;94.30;;;;;;5012457;28;20045;-77
2023/07/07 08:10:31;;;;;;;4.10;1.60;;;20.10;94.20;;;;;;5029791;28;20533;-76
2023/07/07 08:13:17;;;;;;;3.38;1.60;;;20.10;94.40;;;;;;5036123;28;20134;-77
2023/07/07 08:16:03;;;;;;;4.03;1.90;;;20.10;94.50;;;;;;5027377;28;20743;-75
2023/07/07 08:18:49;;;;;;;7.72;1.95;;;20.10;94.50;;;;;;5014052;28;20141;-80
2023/07/07 08:21:35;;;;;;;3.45;1.90;;;20.20;94.80;;;;;;5036402;28;20055;-81
2023/07/07 08:24:21;;;;;;;3.95;1.88;;;20.40;94.10;;;;;;5013914;28;20057;-79
2023/07/07 08:27:07;;;;;;;3.22;1.67;;;20.40;93.70;;;;;;5032517;28;20041;-79
2023/07/07 08:29:54;;;;;;;4.65;1.58;;;20.50;94.10;;;;;;5027869;28;20047;-78
2023/07/07 08:32:40;;;;;;;4.93;1.88;;;20.60;94.20;;;;;;5032766;28;20052;-80
2023/07/07 08:35:26;;;;;;;3.88;1.60;;;20.70;94.00;;;;;;5037633;28;20083;-81
2023/07/07 08:38:12;;;;;;;5.63;1.80;;;20.80;93.00;;;;;;5036140;28;20103;-79
2023/07/07 08:40:59;;;;;;;4.45;1.60;;;20.90;93.20;;;;;;5044343;28;20062;-79
2023/07/07 08:43:47;;;;;;;3.63;1.40;;;20.80;92.90;;;;;;5042161;28;20041;-79
2023/07/07 08:46:36;;;;;;;4.85;2.10;;;20.80;91.80;;;;;;5030525;28;20053;-76
2023/07/07 08:49:40;;;;;;;4.25;1.60;;;21.10;92.30;;;;;;5050972;28;20050;-78
2023/07/07 08:52:26;;;;;;;5.13;1.92;;;21.00;92.90;;;;;;5044308;28;20485;-77
2023/07/07 08:55:27;;;;;;;4.35;1.90;;;21.00;92.30;;;;;;5047954;28;20139;-77
2023/07/07 08:58:23;;;;;;;3.53;1.58;;;21.20;92.70;;;;;;5039245;28;20032;-76
2023/07/07 09:01:33;;;;;;;10.07;2.10;;;21.40;91.80;;;;;;5039073;28;20573;-77
2023/07/07 09:04:37;;;;;;;6.45;2.15;;;21.50;93.60;;;;;;5042890;28;20049;-77
2023/07/07 09:07:47;;;;;;;4.10;1.50;;;21.70;92.00;;;;;;5044700;28;20060;-77
2023/07/07 09:11:14;;;;;;;18.35;2.95;;;21.90;89.80;;;;;;5026311;28;20048;-78
2023/07/07 09:14:00;;;;;;;37.30;4.25;;;21.80;92.20;;;;;;5043587;28;20495;-78
2023/07/07 09:16:46;;;;;;;11.68;1.90;;;21.90;92.10;;;;;;5057691;28;20056;-76
2023/07/07 09:19:37;;;;;;;7.13;1.55;;;21.90;91.40;;;;;;5029070;28;20067;-77
2023/07/07 09:22:30;;;;;;;6.97;1.90;;;21.90;90.50;;;;;;5037125;28;20037;-78
2023/07/07 09:25:26;;;;;;;3.83;1.48;;;22.10;90.20;;;;;;5049467;28;20041;-77
2023/07/07 09:28:12;;;;;;;3.03;1.63;;;22.20;87.60;;;;;;5033895;28;20037;-76
2023/07/07 09:31:20;;;;;;;6.88;3.38;;;22.00;87.50;;;;;;5025743;28;20091;-77
2023/07/07 09:34:08;;;;;;;3.83;1.70;;;22.20;86.10;;;;;;5047253;28;20485;-77
2023/07/07 09:37:22;;;;;;;3.75;1.40;;;22.50;78.10;;;;;;5017139;28;20045;-77
2023/07/07 09:40:43;;;;;;;4.78;1.70;;;22.50;76.50;;;;;;5046564;28;20055;-77
2023/07/07 09:43:52;;;;;;;4.53;1.45;;;22.40;80.10;;;;;;5038298;28;20510;-77
2023/07/07 09:46:49;;;;;;;5.55;1.73;;;22.20;81.00;;;;;;5044079;28;20037;-78
2023/07/07 09:49:38;;;;;;;2.20;1.35;;;22.40;80.50;;;;;;5052154;28;20045;-76
2023/07/07 09:52:48;;;;;;;4.72;1.52;;;22.50;80.40;;;;;;5040571;28;20041;-78
2023/07/07 09:55:35;;;;;;;4.25;1.52;;;22.70;79.30;;;;;;5044031;28;20051;-78
2023/07/07 09:58:31;;;;;;;4.22;1.70;;;22.70;79.20;;;;;;5045500;28;20126;-79
2023/07/07 10:01:17;;;;;;;6.80;1.63;;;22.90;76.10;;;;;;5041062;28;20045;-78
2023/07/07 10:04:08;;;;;;;2.88;1.48;;;22.90;79.90;;;;;;5052350;28;20041;-79
2023/07/07 10:07:01;;;;;;;6.43;2.00;;;22.80;82.80;;;;;;5025772;28;20032;-78
2023/07/07 10:09:47;;;;;;;5.18;1.30;;;23.30;79.00;;;;;;5018208;28;20036;-81
2023/07/07 10:12:34;;;;;;;4.82;1.38;;;23.30;75.70;;;;;;5044700;28;20037;-79
2023/07/07 10:15:53;;;;;;;4.50;1.57;;;23.30;75.10;;;;;;5035958;28;20056;-78
2023/07/07 10:18:39;;;;;;;3.78;1.70;;;23.20;76.90;;;;;;5039430;28;20721;-77
2023/07/07 10:21:26;;;;;;;2.55;1.40;;;23.30;77.50;;;;;;5010708;28;20041;-79
2023/07/07 10:24:12;;;;;;;2.50;1.40;;;23.50;77.90;;;;;;5032300;28;20119;-78
2023/07/07 10:26:58;;;;;;;3.03;1.60;;;23.50;78.30;;;;;;5037501;28;20039;-77
2023/07/07 10:29:45;;;;;;;3.88;1.50;;;23.50;79.10;;;;;;5012218;28;20599;-80
2023/07/07 10:32:31;;;;;;;3.05;1.70;;;23.60;74.50;;;;;;5029520;28;20037;-79
2023/07/07 10:35:18;;;;;;;3.60;1.60;;;23.60;78.20;;;;;;5025834;28;20045;-79
2023/07/07 10:38:04;;;;;;;3.70;1.63;;;23.70;77.10;;;;;;5019717;28;20666;-77
2023/07/07 10:40:51;;;;;;;2.88;1.45;;;23.80;79.80;;;;;;5035202;28;20037;-77
2023/07/07 10:43:39;;;;;;;3.00;1.50;;;23.90;78.00;;;;;;5032007;28;20045;-77
2023/07/07 10:46:25;;;;;;;3.53;1.60;;;24.00;78.80;;;;;;5016053;28;20336;-76
2023/07/07 10:49:15;;;;;;;4.45;1.55;;;24.10;76.50;;;;;;5015883;28;20489;-76
2023/07/07 10:52:04;;;;;;;2.83;1.50;;;24.30;79.60;;;;;;5026325;28;20037;-75
2023/07/07 10:54:50;;;;;;;3.38;1.60;;;24.30;75.80;;;;;;5034359;28;20706;-76
2023/07/07 10:57:42;;;;;;;3.63;1.70;;;24.30;77.90;;;;;;5033936;28;20155;-76
2023/07/07 11:00:42;;;;;;;3.38;1.35;;;24.20;73.40;;;;;;5025087;28;20045;-76
2023/07/07 11:03:52;;;;;;;3.67;1.70;;;24.50;74.30;;;;;;5028782;28;20063;-76
2023/07/07 11:07:18;;;;;;;6.57;2.67;;;24.60;74.10;;;;;;5040492;28;20470;-77
2023/07/07 11:10:36;;;;;;;5.53;1.73;;;24.40;78.20;;;;;;5034792;28;20477;-76
2023/07/07 11:13:59;;;;;;;4.47;1.58;;;24.50;75.10;;;;;;5045314;28;20115;-77
2023/07/07 11:16:55;;;;;;;5.28;2.10;;;24.60;73.50;;;;;;5046628;28;20473;-76
2023/07/07 11:20:12;;;;;;;4.82;1.73;;;24.50;77.60;;;;;;5042798;28;20049;-79
2023/07/07 11:23:36;;;;;;;4.57;1.77;;;24.70;71.40;;;;;;5043888;28;20056;-76
2023/07/07 11:26:49;;;;;;;2.80;1.35;;;24.70;74.10;;;;;;5042641;28;20041;-76
2023/07/07 11:29:46;;;;;;;4.20;1.48;;;24.90;70.40;;;;;;5033235;28;20034;-79
2023/07/07 11:32:45;;;;;;;5.28;1.90;;;24.70;74.70;;;;;;5040969;28;20044;-77
2023/07/07 11:36:02;;;;;;;5.80;2.00;;;24.70;76.70;;;;;;5022345;28;20048;-78
2023/07/07 11:39:22;;;;;;;4.38;1.77;;;24.70;73.60;;;;;;5033576;28;20084;-78
2023/07/07 11:42:25;;;;;;;3.33;1.50;;;25.10;72.10;;;;;;5037385;28;20073;-78
2023/07/07 11:45:39;;;;;;;3.78;1.55;;;25.10;73.30;;;;;;5028341;28;20049;-78
2023/07/07 11:48:31;;;;;;;2.72;1.73;;;25.20;72.80;;;;;;5043439;28;20080;-77
2023/07/07 11:51:29;;;;;;;3.67;1.88;;;25.40;73.40;;;;;;5045985;28;20044;-77
2023/07/07 11:54:35;;;;;;;5.32;1.60;;;25.50;72.80;;;;;;5015334;28;20049;-79
2023/07/07 11:57:23;;;;;;;3.33;1.40;;;25.50;73.40;;;;;;5038348;28;20044;-77
2023/07/07 12:00:37;;;;;;;3.83;1.45;;;25.70;69.50;;;;;;5044804;28;20049;-80
2023/07/07 12:03:36;;;;;;;5.38;1.55;;;25.60;69.00;;;;;;5034632;28;20056;-78
2023/07/07 12:06:48;;;;;;;2.72;1.45;;;25.80;69.30;;;;;;5041755;28;20100;-78
2023/07/07 12:09:49;;;;;;;3.08;1.75;;;25.80;68.20;;;;;;5025259;28;20044;-77
2023/07/07 12:12:38;;;;;;;5.60;1.67;;;25.80;70.20;;;;;;5039098;28;20041;-78
2023/07/07 12:15:34;;;;;;;3.55;1.80;;;26.10;68.30;;;;;;5030332;28;20045;-77
2023/07/07 12:18:25;;;;;;;4.47;1.67;;;26.10;69.00;;;;;;5023200;28;20033;-76
2023/07/07 12:21:16;;;;;;;4.97;1.80;;;26.20;69.80;;;;;;5016076;28;20038;-77
2023/07/07 12:24:44;;;;;;;4.28;1.70;;;26.20;65.80;;;;;;5029154;28;20056;-75
2023/07/07 12:27:41;;;;;;;4.45;1.73;;;26.20;67.50;;;;;;5033655;28;20052;-77
2023/07/07 12:30:30;;;;;;;3.92;1.70;;;26.20;64.60;;;;;;5032808;28;20029;-75
2023/07/07 12:33:16;;;;;;;3.50;1.50;;;26.20;66.80;;;;;;5033589;28;20115;-76
2023/07/07 12:36:03;;;;;;;50.22;4.45;;;26.30;66.10;;;;;;5031399;28;20037;-76
2023/07/07 12:38:52;;;;;;;4.70;1.70;;;26.50;67.90;;;;;;5017653;28;20077;-78
2023/07/07 12:41:39;;;;;;;2.17;1.38;;;26.60;66.80;;;;;;5020541;28;20049;-76
2023/07/07 12:44:28;;;;;;;1.92;1.15;;;26.50;66.50;;;;;;5032710;28;20041;-76
2023/07/07 12:47:30;;;;;;;5.13;1.70;;;26.80;68.20;;;;;;5036717;28;20041;-76
2023/07/07 12:50:31;;;;;;;3.85;1.65;;;26.90;66.40;;;;;;5036374;28;20037;-76
2023/07/07 12:53:35;;;;;;;4.47;1.88;;;27.00;66.20;;;;;;5023254;28;20422;-78
2023/07/07 12:56:23;;;;;;;3.20;1.80;;;26.90;63.80;;;;;;5033388;28;20065;-78
2023/07/07 12:59:46;;;;;;;2.90;1.52;;;26.90;63.60;;;;;;5017044;28;20077;-79
2023/07/07 13:02:32;;;;;;;4.15;1.70;;;27.00;67.40;;;;;;5027500;28;20041;-75
2023/07/07 13:05:23;;;;;;;3.25;1.60;;;27.00;65.60;;;;;;5025420;28;20050;-75
2023/07/07 13:08:09;;;;;;;3.33;1.58;;;26.90;66.00;;;;;;5039591;28;20047;-77
2023/07/07 13:11:02;;;;;;;8.75;1.83;;;27.30;66.40;;;;;;5029356;28;20047;-76
2023/07/07 13:13:49;;;;;;;5.20;1.58;;;27.30;64.80;;;;;;5017470;28;20445;-77
2023/07/07 13:16:37;;;;;;;3.00;1.60;;;27.40;65.40;;;;;;5050078;28;20036;-75
2023/07/07 13:19:23;;;;;;;3.65;1.75;;;27.40;65.00;;;;;;5026276;28;20034;-75
2023/07/07 13:22:15;;;;;;;3.78;1.80;;;27.70;66.50;;;;;;5035613;28;20114;-75
2023/07/07 13:25:05;;;;;;;5.28;1.50;;;27.90;66.20;;;;;;5025510;28;20037;-76
2023/07/07 13:27:52;;;;;;;6.05;1.85;;;28.00;66.60;;;;;;5013862;28;20038;-79
2023/07/07 13:30:41;;;;;;;5.32;1.85;;;28.10;63.60;;;;;;5048186;28;20363;-79
2023/07/07 13:33:30;;;;;;;2.92;1.80;;;28.00;61.70;;;;;;5021581;28;20060;-76
2023/07/07 13:36:16;;;;;;;3.53;1.52;;;27.80;63.70;;;;;;5017300;28;20510;-76
2023/07/07 13:39:02;;;;;;;3.50;1.70;;;28.00;64.00;;;;;;5029176;28;20188;-76
2023/07/07 13:41:48;;;;;;;3.38;1.70;;;28.30;64.70;;;;;;5029262;28;20099;-75
2023/07/07 13:44:34;;;;;;;4.38;1.80;;;28.40;62.30;;;;;;5013303;28;20049;-75
2023/07/07 13:47:21;;;;;;;2.90;1.65;;;28.20;61.80;;;;;;5027756;28;20033;-76
2023/07/07 13:50:11;;;;;;;;;;;28.20;62.40;;;;;;5034515;28;20041;-75
2023/07/07 13:52:59;;;;;;;3.20;1.77;;;28.20;62.40;;;;;;5041238;28;19924;-77
2023/07/07 13:55:48;;;;;;;2.40;1.50;;;28.30;61.40;;;;;;5032836;28;20127;-77
2023/07/07 13:58:43;;;;;;;4.18;1.50;;;28.20;61.80;;;;;;5026255;28;20350;-77
2023/07/07 14:01:36;;;;;;;3.28;1.58;;;28.30;60.40;;;;;;5027520;28;20041;-76
2023/07/07 14:04:40;;;;;;;5.72;1.70;;;28.10;61.70;;;;;;5021483;28;20059;-76
2023/07/07 14:07:26;;;;;;;6.35;1.67;;;28.20;60.20;;;;;;5014903;28;20044;-76
2023/07/07 14:10:38;;;;;;;3.53;2.03;;;28.30;60.50;;;;;;5044599;28;20362;-76
2023/07/07 14:13:30;;;;;;;6.75;2.05;;;28.50;62.70;;;;;;5022471;28;20080;-75
2023/07/07 14:16:26;;;;;;;4.90;1.90;;;28.50;62.10;;;;;;5025544;28;20044;-76
2023/07/07 14:19:18;;;;;;;2.78;1.65;;;28.30;58.20;;;;;;5047809;28;20051;-78
2023/07/07 14:22:06;;;;;;;3.55;2.03;;;28.20;60.20;;;;;;5040443;28;20061;-79
2023/07/07 14:24:52;;;;;;;4.07;1.90;;;28.50;60.00;;;;;;5034025;28;20493;-77
2023/07/07 14:27:38;;;;;;;3.80;1.50;;;28.30;59.30;;;;;;5056415;28;20045;-78
2023/07/07 14:30:24;;;;;;;4.50;1.73;;;28.30;58.80;;;;;;5037230;28;21314;-78
2023/07/07 14:33:11;;;;;;;3.35;1.92;;;28.00;59.90;;;;;;5021078;28;20052;-77
2023/07/07 14:35:59;;;;;;;4.88;1.63;;;27.80;60.40;;;;;;5026195;28;20067;-77
2023/07/07 14:39:03;;;;;;;3.65;1.73;;;27.70;60.40;;;;;;5027396;28;20041;-77
2023/07/07 14:41:51;;;;;;;2.47;1.60;;;27.80;59.20;;;;;;5036108;28;20045;-76
2023/07/07 14:44:46;;;;;;;4.35;1.67;;;27.80;58.70;;;;;;5026179;28;20044;-76
2023/07/07 14:47:33;;;;;;;3.35;1.73;;;27.90;60.30;;;;;;5029363;28;20037;-79
2023/07/07 14:50:23;;;;;;;4.30;1.90;;;27.80;58.80;;;;;;5024423;28;20384;-76